sensor_id;sensor_type;location;lat;lon;timestamp;temperature;humidity
51839;DHT22;37886;53.174;6.368;2022-08-05T00:02:02;17.90;99.90
51839;DHT22;37886;53.174;6.368;2022-08-05T00:04:28;17.80;99.90
51839;DHT22;37886;53.174;6.368;2022-08-05T00:06:54;17.80;99.90
51839;DHT22;37886;53.174;6.368;2022-08-05T00:09:19;17.80;99.90
51839;DHT22;37886;53.174;6.368;2022-08-05T00:11:46;17.80;99.90
51839;DHT22;37886;53.174;6.368;2022-08-05T00:14:11;17.80;99.90
51839;DHT22;37886;53.174;6.368;2022-08-05T00:16:37;17.80;99.90
51839;DHT22;37886;53.174;6.368;2022-08-05T00:19:03;17.80;99.90
51839;DHT22;37886;53.174;6.368;2022-08-05T00:21:29;17.80;99.90
51839;DHT22;37886;53.174;6.368;2022-08-05T00:23:54;17.80;99.90
51839;DHT22;37886;53.174;6.368;2022-08-05T00:26:20;17.80;99.90
51839;DHT22;37886;53.174;6.368;2022-08-05T00:28:46;17.70;99.90
51839;DHT22;37886;53.174;6.368;2022-08-05T00:31:12;17.70;99.90
51839;DHT22;37886;53.174;6.368;2022-08-05T00:33:38;17.60;99.90
51839;DHT22;37886;53.174;6.368;2022-08-05T00:36:07;17.60;99.90
51839;DHT22;37886;53.174;6.368;2022-08-05T00:38:33;17.60;99.90
51839;DHT22;37886;53.174;6.368;2022-08-05T00:40:58;17.50;99.90
51839;DHT22;37886;53.174;6.368;2022-08-05T00:43:24;17.50;99.90
51839;DHT22;37886;53.174;6.368;2022-08-05T00:45:50;17.40;99.90
51839;DHT22;37886;53.174;6.368;2022-08-05T00:48:19;17.40;99.90
51839;DHT22;37886;53.174;6.368;2022-08-05T00:50:46;17.40;99.90
51839;DHT22;37886;53.174;6.368;2022-08-05T00:53:14;17.50;99.90
51839;DHT22;37886;53.174;6.368;2022-08-05T00:55:41;17.50;99.90
51839;DHT22;37886;53.174;6.368;2022-08-05T00:58:07;17.40;99.90
51839;DHT22;37886;53.174;6.368;2022-08-05T01:00:33;17.40;99.90
51839;DHT22;37886;53.174;6.368;2022-08-05T01:02:59;17.40;99.90
51839;DHT22;37886;53.174;6.368;2022-08-05T01:05:25;17.40;99.90
51839;DHT22;37886;53.174;6.368;2022-08-05T01:07:50;17.50;99.90
51839;DHT22;37886;53.174;6.368;2022-08-05T01:10:21;17.50;99.90
51839;DHT22;37886;53.174;6.368;2022-08-05T01:12:52;17.50;99.90
51839;DHT22;37886;53.174;6.368;2022-08-05T01:15:28;17.50;99.90
51839;DHT22;37886;53.174;6.368;2022-08-05T01:18:01;17.50;99.90
51839;DHT22;37886;53.174;6.368;2022-08-05T01:29:18;17.50;99.90
51839;DHT22;37886;53.174;6.368;2022-08-05T01:31:51;17.50;99.90
51839;DHT22;37886;53.174;6.368;2022-08-05T01:34:25;17.60;99.90
51839;DHT22;37886;53.174;6.368;2022-08-05T01:39:27;17.60;99.90
51839;DHT22;37886;53.174;6.368;2022-08-05T01:41:55;17.70;99.90
51839;DHT22;37886;53.174;6.368;2022-08-05T01:44:22;17.70;99.90
51839;DHT22;37886;53.174;6.368;2022-08-05T01:46:50;17.70;99.90
51839;DHT22;37886;53.174;6.368;2022-08-05T01:49:21;17.70;99.90
51839;DHT22;37886;53.174;6.368;2022-08-05T01:51:48;17.70;99.90
51839;DHT22;37886;53.174;6.368;2022-08-05T01:54:15;17.70;99.90
51839;DHT22;37886;53.174;6.368;2022-08-05T01:56:42;17.70;99.90
51839;DHT22;37886;53.174;6.368;2022-08-05T01:59:11;17.70;99.90
51839;DHT22;37886;53.174;6.368;2022-08-05T02:01:38;17.60;99.90
51839;DHT22;37886;53.174;6.368;2022-08-05T02:04:05;17.60;99.90
51839;DHT22;37886;53.174;6.368;2022-08-05T02:06:32;17.60;99.90
51839;DHT22;37886;53.174;6.368;2022-08-05T02:08:58;17.60;99.90
51839;DHT22;37886;53.174;6.368;2022-08-05T02:11:26;17.60;99.90
51839;DHT22;37886;53.174;6.368;2022-08-05T02:14:31;17.60;99.90
51839;DHT22;37886;53.174;6.368;2022-08-05T02:17:05;17.50;99.90
51839;DHT22;37886;53.174;6.368;2022-08-05T02:19:35;17.50;99.90
51839;DHT22;37886;53.174;6.368;2022-08-05T02:24:49;17.40;99.90
51839;DHT22;37886;53.174;6.368;2022-08-05T02:27:17;17.40;99.90
51839;DHT22;37886;53.174;6.368;2022-08-05T02:29:45;17.30;99.90
51839;DHT22;37886;53.174;6.368;2022-08-05T02:32:14;17.30;99.90
51839;DHT22;37886;53.174;6.368;2022-08-05T02:34:41;17.30;99.90
51839;DHT22;37886;53.174;6.368;2022-08-05T02:37:09;17.30;99.90
51839;DHT22;37886;53.174;6.368;2022-08-05T02:39:36;17.20;99.90
51839;DHT22;37886;53.174;6.368;2022-08-05T02:42:04;17.30;99.90
51839;DHT22;37886;53.174;6.368;2022-08-05T02:44:33;17.30;99.90
51839;DHT22;37886;53.174;6.368;2022-08-05T02:47:02;17.30;99.90
51839;DHT22;37886;53.174;6.368;2022-08-05T02:49:37;17.30;99.90
51839;DHT22;37886;53.174;6.368;2022-08-05T02:52:17;17.30;99.90
51839;DHT22;37886;53.174;6.368;2022-08-05T02:54:43;17.30;99.90
51839;DHT22;37886;53.174;6.368;2022-08-05T02:57:14;17.30;99.90
51839;DHT22;37886;53.174;6.368;2022-08-05T02:59:44;17.20;99.90
51839;DHT22;37886;53.174;6.368;2022-08-05T03:02:12;17.20;99.90
51839;DHT22;37886;53.174;6.368;2022-08-05T03:04:40;17.20;99.90
51839;DHT22;37886;53.174;6.368;2022-08-05T03:07:07;17.20;99.90
51839;DHT22;37886;53.174;6.368;2022-08-05T03:09:35;17.20;99.90
51839;DHT22;37886;53.174;6.368;2022-08-05T03:12:01;17.20;99.90
51839;DHT22;37886;53.174;6.368;2022-08-05T03:14:26;17.10;99.90
51839;DHT22;37886;53.174;6.368;2022-08-05T03:16:53;17.10;99.90
51839;DHT22;37886;53.174;6.368;2022-08-05T03:19:18;17.10;99.90
51839;DHT22;37886;53.174;6.368;2022-08-05T03:21:44;17.00;99.90
51839;DHT22;37886;53.174;6.368;2022-08-05T03:24:10;17.00;99.90
51839;DHT22;37886;53.174;6.368;2022-08-05T03:26:36;17.00;99.90
51839;DHT22;37886;53.174;6.368;2022-08-05T03:29:02;17.00;99.90
51839;DHT22;37886;53.174;6.368;2022-08-05T03:31:29;17.00;99.90
51839;DHT22;37886;53.174;6.368;2022-08-05T03:33:56;16.90;99.90
51839;DHT22;37886;53.174;6.368;2022-08-05T03:36:22;16.90;99.90
51839;DHT22;37886;53.174;6.368;2022-08-05T03:38:48;16.90;99.90
51839;DHT22;37886;53.174;6.368;2022-08-05T03:41:15;16.90;99.90
51839;DHT22;37886;53.174;6.368;2022-08-05T03:43:40;16.80;99.90
51839;DHT22;37886;53.174;6.368;2022-08-05T03:46:06;16.90;99.90
51839;DHT22;37886;53.174;6.368;2022-08-05T03:48:32;16.80;99.90
51839;DHT22;37886;53.174;6.368;2022-08-05T03:51:21;16.80;99.90
51839;DHT22;37886;53.174;6.368;2022-08-05T03:53:58;16.80;99.90
51839;DHT22;37886;53.174;6.368;2022-08-05T03:56:29;16.80;99.90
51839;DHT22;37886;53.174;6.368;2022-08-05T03:59:02;16.80;99.90
51839;DHT22;37886;53.174;6.368;2022-08-05T04:01:30;16.80;99.90
51839;DHT22;37886;53.174;6.368;2022-08-05T04:03:57;16.80;99.90
51839;DHT22;37886;53.174;6.368;2022-08-05T04:06:24;16.80;99.90
51839;DHT22;37886;53.174;6.368;2022-08-05T04:08:50;16.80;99.90
51839;DHT22;37886;53.174;6.368;2022-08-05T04:11:17;16.80;99.90
51839;DHT22;37886;53.174;6.368;2022-08-05T04:13:44;16.80;99.90
51839;DHT22;37886;53.174;6.368;2022-08-05T04:16:12;16.70;99.90
51839;DHT22;37886;53.174;6.368;2022-08-05T04:18:38;16.70;99.90
51839;DHT22;37886;53.174;6.368;2022-08-05T04:21:05;16.60;99.90
51839;DHT22;37886;53.174;6.368;2022-08-05T04:23:32;16.60;99.90
51839;DHT22;37886;53.174;6.368;2022-08-05T04:25:58;16.60;99.90
51839;DHT22;37886;53.174;6.368;2022-08-05T04:28:24;16.60;99.90
51839;DHT22;37886;53.174;6.368;2022-08-05T04:30:50;16.60;99.90
51839;DHT22;37886;53.174;6.368;2022-08-05T04:33:16;16.60;99.90
51839;DHT22;37886;53.174;6.368;2022-08-05T04:35:42;16.60;99.90
51839;DHT22;37886;53.174;6.368;2022-08-05T04:38:09;16.60;99.90
51839;DHT22;37886;53.174;6.368;2022-08-05T04:40:36;16.70;99.90
51839;DHT22;37886;53.174;6.368;2022-08-05T04:43:02;16.70;99.90
51839;DHT22;37886;53.174;6.368;2022-08-05T04:45:28;16.70;99.90
51839;DHT22;37886;53.174;6.368;2022-08-05T04:48:01;16.70;99.90
51839;DHT22;37886;53.174;6.368;2022-08-05T04:50:27;16.70;99.90
51839;DHT22;37886;53.174;6.368;2022-08-05T04:52:53;16.70;99.90
51839;DHT22;37886;53.174;6.368;2022-08-05T04:55:18;16.70;99.90
51839;DHT22;37886;53.174;6.368;2022-08-05T04:57:44;16.70;99.90
51839;DHT22;37886;53.174;6.368;2022-08-05T05:00:11;16.60;99.90
51839;DHT22;37886;53.174;6.368;2022-08-05T05:02:37;16.70;99.90
51839;DHT22;37886;53.174;6.368;2022-08-05T05:05:04;16.70;99.90
51839;DHT22;37886;53.174;6.368;2022-08-05T05:07:31;16.70;99.90
51839;DHT22;37886;53.174;6.368;2022-08-05T05:09:56;16.60;99.90
51839;DHT22;37886;53.174;6.368;2022-08-05T05:12:22;16.60;99.90
51839;DHT22;37886;53.174;6.368;2022-08-05T05:14:49;16.70;99.90
51839;DHT22;37886;53.174;6.368;2022-08-05T05:17:24;16.70;99.90
51839;DHT22;37886;53.174;6.368;2022-08-05T05:19:52;16.70;99.90
51839;DHT22;37886;53.174;6.368;2022-08-05T05:22:19;16.70;99.90
51839;DHT22;37886;53.174;6.368;2022-08-05T05:24:45;16.60;99.90
51839;DHT22;37886;53.174;6.368;2022-08-05T05:27:11;16.70;99.90
51839;DHT22;37886;53.174;6.368;2022-08-05T05:29:36;16.60;99.90
51839;DHT22;37886;53.174;6.368;2022-08-05T05:32:02;16.60;99.90
51839;DHT22;37886;53.174;6.368;2022-08-05T05:34:28;16.70;99.90
51839;DHT22;37886;53.174;6.368;2022-08-05T05:36:54;16.60;99.90
51839;DHT22;37886;53.174;6.368;2022-08-05T05:39:20;16.70;99.90
51839;DHT22;37886;53.174;6.368;2022-08-05T05:41:45;16.70;99.90
51839;DHT22;37886;53.174;6.368;2022-08-05T05:44:11;16.60;99.90
51839;DHT22;37886;53.174;6.368;2022-08-05T05:46:37;16.60;99.90
51839;DHT22;37886;53.174;6.368;2022-08-05T05:49:03;16.50;99.90
51839;DHT22;37886;53.174;6.368;2022-08-05T05:51:28;16.50;99.90
51839;DHT22;37886;53.174;6.368;2022-08-05T05:53:54;16.40;99.90
51839;DHT22;37886;53.174;6.368;2022-08-05T05:56:21;16.40;99.90
51839;DHT22;37886;53.174;6.368;2022-08-05T05:58:47;16.40;99.90
51839;DHT22;37886;53.174;6.368;2022-08-05T06:01:14;16.40;99.90
51839;DHT22;37886;53.174;6.368;2022-08-05T06:03:40;16.40;99.90
51839;DHT22;37886;53.174;6.368;2022-08-05T06:06:06;16.50;99.90
51839;DHT22;37886;53.174;6.368;2022-08-05T06:08:32;16.60;99.90
51839;DHT22;37886;53.174;6.368;2022-08-05T06:10:58;16.80;99.90
51839;DHT22;37886;53.174;6.368;2022-08-05T06:13:24;16.90;99.90
51839;DHT22;37886;53.174;6.368;2022-08-05T06:15:49;17.00;99.90
51839;DHT22;37886;53.174;6.368;2022-08-05T06:18:15;17.10;99.90
51839;DHT22;37886;53.174;6.368;2022-08-05T06:20:41;17.20;99.90
51839;DHT22;37886;53.174;6.368;2022-08-05T06:23:09;17.30;99.90
51839;DHT22;37886;53.174;6.368;2022-08-05T06:25:35;17.30;99.90
51839;DHT22;37886;53.174;6.368;2022-08-05T06:28:01;17.40;99.90
51839;DHT22;37886;53.174;6.368;2022-08-05T06:30:27;17.60;99.90
51839;DHT22;37886;53.174;6.368;2022-08-05T06:32:52;17.70;99.90
51839;DHT22;37886;53.174;6.368;2022-08-05T06:35:18;17.70;99.90
51839;DHT22;37886;53.174;6.368;2022-08-05T06:37:44;17.80;99.90
51839;DHT22;37886;53.174;6.368;2022-08-05T06:40:11;17.90;99.90
51839;DHT22;37886;53.174;6.368;2022-08-05T06:42:37;18.00;99.90
51839;DHT22;37886;53.174;6.368;2022-08-05T06:45:04;18.20;99.90
51839;DHT22;37886;53.174;6.368;2022-08-05T06:47:30;18.30;99.90
51839;DHT22;37886;53.174;6.368;2022-08-05T06:49:56;18.40;99.90
51839;DHT22;37886;53.174;6.368;2022-08-05T06:52:22;18.50;99.90
51839;DHT22;37886;53.174;6.368;2022-08-05T06:54:48;18.60;99.90
51839;DHT22;37886;53.174;6.368;2022-08-05T06:57:14;18.60;99.90
51839;DHT22;37886;53.174;6.368;2022-08-05T06:59:41;18.50;99.90
51839;DHT22;37886;53.174;6.368;2022-08-05T07:02:08;18.60;99.90
51839;DHT22;37886;53.174;6.368;2022-08-05T07:04:33;18.60;99.90
51839;DHT22;37886;53.174;6.368;2022-08-05T07:06:59;18.70;99.90
51839;DHT22;37886;53.174;6.368;2022-08-05T07:09:25;18.80;99.90
51839;DHT22;37886;53.174;6.368;2022-08-05T07:11:50;18.80;99.90
51839;DHT22;37886;53.174;6.368;2022-08-05T07:14:17;18.90;99.90
51839;DHT22;37886;53.174;6.368;2022-08-05T07:17:01;18.90;99.90
51839;DHT22;37886;53.174;6.368;2022-08-05T07:19:27;19.20;99.90
51839;DHT22;37886;53.174;6.368;2022-08-05T07:21:56;19.20;99.90
51839;DHT22;37886;53.174;6.368;2022-08-05T07:24:22;19.40;99.90
51839;DHT22;37886;53.174;6.368;2022-08-05T07:26:48;19.50;99.90
51839;DHT22;37886;53.174;6.368;2022-08-05T07:29:14;19.60;99.90
51839;DHT22;37886;53.174;6.368;2022-08-05T07:31:41;19.60;99.90
51839;DHT22;37886;53.174;6.368;2022-08-05T07:34:07;19.50;99.90
51839;DHT22;37886;53.174;6.368;2022-08-05T07:36:33;19.70;99.90
51839;DHT22;37886;53.174;6.368;2022-08-05T07:39:00;19.70;99.90
51839;DHT22;37886;53.174;6.368;2022-08-05T07:41:26;19.90;99.90
51839;DHT22;37886;53.174;6.368;2022-08-05T07:43:53;19.80;99.90
51839;DHT22;37886;53.174;6.368;2022-08-05T07:46:18;19.90;99.90
51839;DHT22;37886;53.174;6.368;2022-08-05T07:48:44;20.00;99.90
51839;DHT22;37886;53.174;6.368;2022-08-05T07:51:10;20.20;99.90
51839;DHT22;37886;53.174;6.368;2022-08-05T07:53:36;20.40;99.90
51839;DHT22;37886;53.174;6.368;2022-08-05T07:56:04;20.30;99.90
51839;DHT22;37886;53.174;6.368;2022-08-05T07:58:30;20.00;99.90
51839;DHT22;37886;53.174;6.368;2022-08-05T08:00:56;19.70;99.90
51839;DHT22;37886;53.174;6.368;2022-08-05T08:03:22;19.90;99.90
51839;DHT22;37886;53.174;6.368;2022-08-05T08:05:49;20.30;99.90
51839;DHT22;37886;53.174;6.368;2022-08-05T08:08:18;20.90;99.90
51839;DHT22;37886;53.174;6.368;2022-08-05T08:10:44;21.30;99.90
51839;DHT22;37886;53.174;6.368;2022-08-05T08:13:10;21.00;99.90
51839;DHT22;37886;53.174;6.368;2022-08-05T08:15:36;20.10;99.90
51839;DHT22;37886;53.174;6.368;2022-08-05T08:18:02;19.60;99.90
51839;DHT22;37886;53.174;6.368;2022-08-05T08:20:28;19.70;99.90
51839;DHT22;37886;53.174;6.368;2022-08-05T08:22:56;20.50;99.90
51839;DHT22;37886;53.174;6.368;2022-08-05T08:25:24;21.30;99.90
51839;DHT22;37886;53.174;6.368;2022-08-05T08:27:50;21.30;99.90
51839;DHT22;37886;53.174;6.368;2022-08-05T08:30:16;21.10;99.90
51839;DHT22;37886;53.174;6.368;2022-08-05T08:32:42;20.80;99.90
51839;DHT22;37886;53.174;6.368;2022-08-05T08:35:08;20.90;99.90
51839;DHT22;37886;53.174;6.368;2022-08-05T08:37:34;21.20;99.90
51839;DHT22;37886;53.174;6.368;2022-08-05T08:40:00;21.30;99.90
51839;DHT22;37886;53.174;6.368;2022-08-05T08:42:26;20.90;99.90
51839;DHT22;37886;53.174;6.368;2022-08-05T08:44:55;21.00;99.90
51839;DHT22;37886;53.174;6.368;2022-08-05T08:47:24;21.20;99.90
51839;DHT22;37886;53.174;6.368;2022-08-05T08:49:51;20.90;99.90
51839;DHT22;37886;53.174;6.368;2022-08-05T08:52:22;20.70;99.90
51839;DHT22;37886;53.174;6.368;2022-08-05T08:54:48;21.00;99.90
51839;DHT22;37886;53.174;6.368;2022-08-05T08:57:16;21.30;99.90
51839;DHT22;37886;53.174;6.368;2022-08-05T08:59:42;20.70;99.90
51839;DHT22;37886;53.174;6.368;2022-08-05T09:02:08;20.80;99.90
51839;DHT22;37886;53.174;6.368;2022-08-05T09:04:36;20.80;99.90
51839;DHT22;37886;53.174;6.368;2022-08-05T09:07:07;21.00;99.90
51839;DHT22;37886;53.174;6.368;2022-08-05T09:09:35;21.00;99.90
51839;DHT22;37886;53.174;6.368;2022-08-05T09:12:02;21.10;99.90
51839;DHT22;37886;53.174;6.368;2022-08-05T09:14:33;21.30;99.90
51839;DHT22;37886;53.174;6.368;2022-08-05T09:16:58;21.50;99.90
51839;DHT22;37886;53.174;6.368;2022-08-05T09:19:24;21.50;99.90
51839;DHT22;37886;53.174;6.368;2022-08-05T09:21:50;21.50;99.90
51839;DHT22;37886;53.174;6.368;2022-08-05T09:24:16;21.60;99.90
51839;DHT22;37886;53.174;6.368;2022-08-05T09:26:46;21.60;99.90
51839;DHT22;37886;53.174;6.368;2022-08-05T09:29:13;21.60;99.90
51839;DHT22;37886;53.174;6.368;2022-08-05T09:31:39;21.30;99.90
51839;DHT22;37886;53.174;6.368;2022-08-05T09:34:09;21.30;99.90
51839;DHT22;37886;53.174;6.368;2022-08-05T09:36:47;21.70;99.90
51839;DHT22;37886;53.174;6.368;2022-08-05T09:39:18;21.90;99.90
51839;DHT22;37886;53.174;6.368;2022-08-05T09:42:01;21.20;99.90
51839;DHT22;37886;53.174;6.368;2022-08-05T09:44:47;20.80;99.90
51839;DHT22;37886;53.174;6.368;2022-08-05T09:47:18;20.60;99.90
51839;DHT22;37886;53.174;6.368;2022-08-05T09:49:52;20.90;99.90
51839;DHT22;37886;53.174;6.368;2022-08-05T09:52:25;21.20;99.90
51839;DHT22;37886;53.174;6.368;2022-08-05T09:54:56;21.20;99.90
51839;DHT22;37886;53.174;6.368;2022-08-05T09:57:30;21.20;99.90
51839;DHT22;37886;53.174;6.368;2022-08-05T10:00:00;21.30;99.90
51839;DHT22;37886;53.174;6.368;2022-08-05T10:02:31;21.30;99.90
51839;DHT22;37886;53.174;6.368;2022-08-05T10:05:06;21.10;98.50
51839;DHT22;37886;53.174;6.368;2022-08-05T10:08:03;21.20;99.90
51839;DHT22;37886;53.174;6.368;2022-08-05T10:10:44;20.90;99.90
51839;DHT22;37886;53.174;6.368;2022-08-05T10:13:10;21.00;99.70
51839;DHT22;37886;53.174;6.368;2022-08-05T10:15:40;21.00;98.50
51839;DHT22;37886;53.174;6.368;2022-08-05T10:18:19;21.20;97.30
51839;DHT22;37886;53.174;6.368;2022-08-05T10:20:50;21.50;95.40
51839;DHT22;37886;53.174;6.368;2022-08-05T10:23:41;21.70;96.10
51839;DHT22;37886;53.174;6.368;2022-08-05T10:26:10;21.50;96.40
51839;DHT22;37886;53.174;6.368;2022-08-05T10:28:39;21.60;96.30
51839;DHT22;37886;53.174;6.368;2022-08-05T10:31:06;21.70;95.80
51839;DHT22;37886;53.174;6.368;2022-08-05T10:33:33;22.00;95.50
51839;DHT22;37886;53.174;6.368;2022-08-05T10:36:02;22.00;94.00
51839;DHT22;37886;53.174;6.368;2022-08-05T10:38:43;21.90;93.70
51839;DHT22;37886;53.174;6.368;2022-08-05T10:41:17;22.00;94.10
51839;DHT22;37886;53.174;6.368;2022-08-05T10:44:04;22.40;93.50
51839;DHT22;37886;53.174;6.368;2022-08-05T10:46:49;22.40;93.10
51839;DHT22;37886;53.174;6.368;2022-08-05T10:49:15;22.50;92.30
51839;DHT22;37886;53.174;6.368;2022-08-05T10:51:46;22.50;93.70
51839;DHT22;37886;53.174;6.368;2022-08-05T10:54:12;22.60;93.50
51839;DHT22;37886;53.174;6.368;2022-08-05T10:56:46;22.60;93.70
51839;DHT22;37886;53.174;6.368;2022-08-05T10:59:17;22.70;93.90
51839;DHT22;37886;53.174;6.368;2022-08-05T11:01:44;22.70;93.40
51839;DHT22;37886;53.174;6.368;2022-08-05T11:04:14;23.20;93.40
51839;DHT22;37886;53.174;6.368;2022-08-05T11:09:27;23.30;92.10
51839;DHT22;37886;53.174;6.368;2022-08-05T11:12:00;22.70;93.30
51839;DHT22;37886;53.174;6.368;2022-08-05T11:14:32;22.00;94.80
51839;DHT22;37886;53.174;6.368;2022-08-05T11:19:49;22.60;95.10
51839;DHT22;37886;53.174;6.368;2022-08-05T11:22:48;23.00;94.80
51839;DHT22;37886;53.174;6.368;2022-08-05T11:25:38;23.10;94.30
51839;DHT22;37886;53.174;6.368;2022-08-05T11:33:30;22.30;96.20
51839;DHT22;37886;53.174;6.368;2022-08-05T11:36:01;22.30;96.00
51839;DHT22;37886;53.174;6.368;2022-08-05T11:41:14;22.10;96.00
51839;DHT22;37886;53.174;6.368;2022-08-05T11:44:12;22.10;97.30
51839;DHT22;37886;53.174;6.368;2022-08-05T11:46:51;21.90;98.70
51839;DHT22;37886;53.174;6.368;2022-08-05T11:49:19;21.40;98.90
51839;DHT22;37886;53.174;6.368;2022-08-05T11:51:48;21.20;99.70
51839;DHT22;37886;53.174;6.368;2022-08-05T11:54:24;21.00;99.80
51839;DHT22;37886;53.174;6.368;2022-08-05T11:56:53;21.20;98.80
51839;DHT22;37886;53.174;6.368;2022-08-05T11:59:23;21.40;98.70
51839;DHT22;37886;53.174;6.368;2022-08-05T12:02:05;21.40;98.60
51839;DHT22;37886;53.174;6.368;2022-08-05T12:04:45;21.60;98.20
51839;DHT22;37886;53.174;6.368;2022-08-05T12:07:13;21.50;98.00
51839;DHT22;37886;53.174;6.368;2022-08-05T12:09:53;22.20;97.60
51839;DHT22;37886;53.174;6.368;2022-08-05T12:12:23;22.70;97.20
51839;DHT22;37886;53.174;6.368;2022-08-05T12:14:49;22.50;96.80
51839;DHT22;37886;53.174;6.368;2022-08-05T12:17:15;22.30;97.00
51839;DHT22;37886;53.174;6.368;2022-08-05T12:19:52;23.00;96.60
51839;DHT22;37886;53.174;6.368;2022-08-05T12:22:24;23.60;95.50
51839;DHT22;37886;53.174;6.368;2022-08-05T12:24:50;23.30;95.80
51839;DHT22;37886;53.174;6.368;2022-08-05T12:27:20;22.50;96.50
51839;DHT22;37886;53.174;6.368;2022-08-05T12:29:56;21.80;97.30
51839;DHT22;37886;53.174;6.368;2022-08-05T12:32:22;21.50;97.80
51839;DHT22;37886;53.174;6.368;2022-08-05T12:34:48;21.40;98.30
51839;DHT22;37886;53.174;6.368;2022-08-05T12:37:15;21.60;97.60
51839;DHT22;37886;53.174;6.368;2022-08-05T12:39:41;21.50;97.60
51839;DHT22;37886;53.174;6.368;2022-08-05T12:42:18;21.90;97.90
51839;DHT22;37886;53.174;6.368;2022-08-05T12:44:45;21.80;97.70
51839;DHT22;37886;53.174;6.368;2022-08-05T12:47:12;21.90;97.60
51839;DHT22;37886;53.174;6.368;2022-08-05T12:49:45;21.70;97.70
51839;DHT22;37886;53.174;6.368;2022-08-05T12:52:16;21.40;97.60
51839;DHT22;37886;53.174;6.368;2022-08-05T12:54:44;21.20;97.30
51839;DHT22;37886;53.174;6.368;2022-08-05T12:57:11;21.10;97.30
51839;DHT22;37886;53.174;6.368;2022-08-05T12:59:49;21.20;97.40
51839;DHT22;37886;53.174;6.368;2022-08-05T13:02:21;21.40;96.90
51839;DHT22;37886;53.174;6.368;2022-08-05T13:04:48;21.40;96.70
51839;DHT22;37886;53.174;6.368;2022-08-05T13:07:23;21.20;96.80
51839;DHT22;37886;53.174;6.368;2022-08-05T13:09:53;21.20;96.30
51839;DHT22;37886;53.174;6.368;2022-08-05T13:12:21;21.40;96.70
51839;DHT22;37886;53.174;6.368;2022-08-05T13:14:57;21.50;96.20
51839;DHT22;37886;53.174;6.368;2022-08-05T13:17:25;21.30;95.80
51839;DHT22;37886;53.174;6.368;2022-08-05T13:20:09;21.60;95.80
51839;DHT22;37886;53.174;6.368;2022-08-05T13:22:37;21.50;95.10
51839;DHT22;37886;53.174;6.368;2022-08-05T13:25:08;21.30;95.20
51839;DHT22;37886;53.174;6.368;2022-08-05T13:27:46;21.10;95.10
51839;DHT22;37886;53.174;6.368;2022-08-05T13:30:14;21.40;94.90
51839;DHT22;37886;53.174;6.368;2022-08-05T13:32:41;22.30;94.70
51839;DHT22;37886;53.174;6.368;2022-08-05T13:35:07;22.10;94.80
51839;DHT22;37886;53.174;6.368;2022-08-05T13:37:34;21.90;95.40
51839;DHT22;37886;53.174;6.368;2022-08-05T13:40:01;21.80;95.50
51839;DHT22;37886;53.174;6.368;2022-08-05T13:42:27;21.80;95.70
51839;DHT22;37886;53.174;6.368;2022-08-05T13:44:54;21.60;95.20
51839;DHT22;37886;53.174;6.368;2022-08-05T13:47:21;21.40;95.50
51839;DHT22;37886;53.174;6.368;2022-08-05T13:49:47;21.70;95.90
51839;DHT22;37886;53.174;6.368;2022-08-05T13:52:18;22.40;96.30
51839;DHT22;37886;53.174;6.368;2022-08-05T13:54:44;22.60;97.30
51839;DHT22;37886;53.174;6.368;2022-08-05T13:57:10;22.40;98.30
51839;DHT22;37886;53.174;6.368;2022-08-05T13:59:38;22.50;98.00
51839;DHT22;37886;53.174;6.368;2022-08-05T14:02:05;22.10;98.60
51839;DHT22;37886;53.174;6.368;2022-08-05T14:04:34;22.40;98.60
51839;DHT22;37886;53.174;6.368;2022-08-05T14:07:21;22.90;98.00
51839;DHT22;37886;53.174;6.368;2022-08-05T14:09:46;22.60;98.20
51839;DHT22;37886;53.174;6.368;2022-08-05T14:12:12;22.10;98.60
51839;DHT22;37886;53.174;6.368;2022-08-05T14:14:38;22.40;98.10
51839;DHT22;37886;53.174;6.368;2022-08-05T14:17:04;22.50;97.60
51839;DHT22;37886;53.174;6.368;2022-08-05T14:19:29;22.80;97.40
51839;DHT22;37886;53.174;6.368;2022-08-05T14:21:55;22.40;97.30
51839;DHT22;37886;53.174;6.368;2022-08-05T14:24:21;22.50;96.50
51839;DHT22;37886;53.174;6.368;2022-08-05T14:26:46;22.40;96.70
51839;DHT22;37886;53.174;6.368;2022-08-05T14:29:12;22.50;96.50
51839;DHT22;37886;53.174;6.368;2022-08-05T14:31:38;22.00;97.00
51839;DHT22;37886;53.174;6.368;2022-08-05T14:34:07;22.50;96.70
51839;DHT22;37886;53.174;6.368;2022-08-05T14:36:32;22.70;96.30
51839;DHT22;37886;53.174;6.368;2022-08-05T14:38:58;23.20;96.20
51839;DHT22;37886;53.174;6.368;2022-08-05T14:41:24;23.60;96.10
51839;DHT22;37886;53.174;6.368;2022-08-05T14:43:50;23.20;96.30
51839;DHT22;37886;53.174;6.368;2022-08-05T14:46:16;23.10;95.80
51839;DHT22;37886;53.174;6.368;2022-08-05T14:48:42;23.20;95.30
51839;DHT22;37886;53.174;6.368;2022-08-05T14:51:08;22.90;94.90
51839;DHT22;37886;53.174;6.368;2022-08-05T14:53:34;22.60;94.80
51839;DHT22;37886;53.174;6.368;2022-08-05T14:55:59;22.90;94.70
51839;DHT22;37886;53.174;6.368;2022-08-05T14:58:25;23.40;94.30
51839;DHT22;37886;53.174;6.368;2022-08-05T15:00:51;23.50;94.10
51839;DHT22;37886;53.174;6.368;2022-08-05T15:03:16;23.30;94.00
51839;DHT22;37886;53.174;6.368;2022-08-05T15:05:42;23.60;93.50
51839;DHT22;37886;53.174;6.368;2022-08-05T15:08:08;23.60;93.40
51839;DHT22;37886;53.174;6.368;2022-08-05T15:10:34;23.60;94.10
51839;DHT22;37886;53.174;6.368;2022-08-05T15:12:59;24.30;93.30
51839;DHT22;37886;53.174;6.368;2022-08-05T15:15:26;24.40;92.80
51839;DHT22;37886;53.174;6.368;2022-08-05T15:17:52;23.40;92.90
51839;DHT22;37886;53.174;6.368;2022-08-05T15:20:18;23.00;93.30
51839;DHT22;37886;53.174;6.368;2022-08-05T15:22:44;22.90;92.90
51839;DHT22;37886;53.174;6.368;2022-08-05T15:25:09;22.60;92.90
51839;DHT22;37886;53.174;6.368;2022-08-05T15:27:35;22.90;92.30
51839;DHT22;37886;53.174;6.368;2022-08-05T15:30:01;23.00;91.80
51839;DHT22;37886;53.174;6.368;2022-08-05T15:32:27;23.00;91.60
51839;DHT22;37886;53.174;6.368;2022-08-05T15:34:52;23.00;91.40
51839;DHT22;37886;53.174;6.368;2022-08-05T15:37:18;23.20;91.00
51839;DHT22;37886;53.174;6.368;2022-08-05T15:39:44;23.60;90.70
51839;DHT22;37886;53.174;6.368;2022-08-05T15:42:10;23.40;91.20
51839;DHT22;37886;53.174;6.368;2022-08-05T15:44:39;23.60;91.50
51839;DHT22;37886;53.174;6.368;2022-08-05T15:47:08;23.50;91.70
51839;DHT22;37886;53.174;6.368;2022-08-05T15:49:34;23.60;91.80
51839;DHT22;37886;53.174;6.368;2022-08-05T15:52:00;23.30;92.00
51839;DHT22;37886;53.174;6.368;2022-08-05T15:54:26;23.40;91.90
51839;DHT22;37886;53.174;6.368;2022-08-05T15:56:51;23.40;91.90
51839;DHT22;37886;53.174;6.368;2022-08-05T15:59:17;22.90;92.00
51839;DHT22;37886;53.174;6.368;2022-08-05T16:01:43;22.70;92.30
51839;DHT22;37886;53.174;6.368;2022-08-05T16:04:11;22.50;93.00
51839;DHT22;37886;53.174;6.368;2022-08-05T16:06:37;22.60;93.20